createdAt,value
2019-01-21T00:01:59.369Z,30.53
2019-01-21T00:04:25.828Z,35.47
2019-01-21T00:06:52.488Z,34.73
2019-01-21T00:09:19.056Z,34.67
2019-01-21T00:11:45.589Z,34.03
2019-01-21T00:14:12.140Z,33.67
2019-01-21T00:16:38.655Z,38.50
2019-01-21T00:19:05.218Z,33.70
2019-01-21T00:21:32.842Z,35.43
2019-01-21T00:23:59.512Z,36.90
2019-01-21T00:26:26.036Z,35.47
2019-01-21T00:28:53.417Z,35.63
2019-01-21T00:31:19.942Z,31.73
2019-01-21T00:33:46.621Z,32.47
2019-01-21T00:36:13.246Z,35.70
2019-01-21T00:38:39.922Z,30.97
2019-01-21T00:41:06.558Z,33.37
2019-01-21T00:43:33.127Z,35.67
2019-01-21T00:45:59.739Z,34.97
2019-01-21T00:48:26.363Z,30.50
2019-01-21T00:50:52.937Z,31.10
2019-01-21T00:53:19.612Z,31.47
2019-01-21T00:55:46.288Z,29.77
2019-01-21T00:58:12.775Z,33.60
2019-01-21T01:00:39.457Z,34.03
2019-01-21T01:03:06.080Z,33.80
2019-01-21T01:05:32.648Z,36.23
2019-01-21T01:07:59.172Z,45.10
2019-01-21T01:10:25.733Z,29.30
2019-01-21T01:12:52.258Z,32.93
2019-01-21T01:15:18.942Z,39.73
2019-01-21T01:17:45.478Z,30.67
2019-01-21T01:20:14.358Z,35.40
2019-01-21T01:22:40.977Z,39.00
2019-01-21T01:25:08.167Z,34.27
2019-01-21T01:27:34.689Z,51.77
2019-01-21T01:30:01.526Z,39.03
2019-01-21T01:32:28.207Z,38.33
2019-01-21T01:34:54.737Z,40.97
2019-01-21T01:37:21.254Z,36.23
2019-01-21T01:39:48.321Z,36.10
2019-01-21T01:42:14.944Z,34.67
2019-01-21T01:44:41.604Z,40.50
2019-01-21T01:47:08.180Z,37.07
2019-01-21T01:49:34.689Z,35.40
2019-01-21T01:52:01.264Z,40.47
2019-01-21T01:54:27.894Z,52.27
2019-01-21T01:56:54.703Z,43.63
2019-01-21T01:59:21.261Z,41.63
2019-01-21T02:01:47.827Z,42.27
2019-01-21T02:04:14.577Z,39.17
2019-01-21T02:06:41.108Z,40.07
2019-01-21T02:09:07.978Z,44.37
2019-01-21T02:11:35.031Z,40.60
2019-01-21T02:14:01.470Z,38.80
2019-01-21T02:16:28.037Z,38.03
2019-01-21T02:18:54.566Z,38.60
2019-01-21T02:21:22.505Z,39.40
2019-01-21T02:23:52.628Z,37.20
2019-01-21T02:26:21.487Z,35.13
2019-01-21T02:28:53.746Z,40.83
2019-01-21T02:31:35.736Z,39.23
2019-01-21T02:34:18.396Z,40.53
2019-01-21T02:36:58.025Z,47.53
2019-01-21T02:39:43.734Z,42.23
2019-01-21T02:42:17.096Z,40.13
2019-01-21T02:44:53.492Z,44.73
2019-01-21T02:47:26.843Z,33.33
2019-01-21T02:50:32.686Z,37.77
2019-01-21T02:53:12.378Z,40.97
2019-01-21T02:55:55.068Z,41.00
2019-01-21T02:58:40.500Z,36.60
2019-01-21T03:01:27.499Z,36.30
2019-01-21T03:04:01.277Z,35.37
2019-01-21T03:06:37.202Z,40.13
2019-01-21T03:09:13.363Z,33.63
2019-01-21T03:11:49.444Z,41.07
2019-01-21T03:14:37.652Z,36.17
2019-01-21T03:17:23.150Z,37.33
2019-01-21T03:19:59.757Z,39.53
2019-01-21T03:22:31.777Z,45.00
2019-01-21T03:25:25.147Z,43.20
2019-01-21T03:27:58.834Z,39.93
2019-01-21T03:30:40.901Z,39.50
2019-01-21T03:33:20.706Z,37.77
2019-01-21T03:36:03.480Z,42.53
2019-01-21T03:38:42.954Z,39.80
2019-01-21T03:41:22.648Z,41.73
2019-01-21T03:44:14.516Z,42.63
2019-01-21T03:46:57.055Z,40.20
2019-01-21T03:49:47.570Z,44.43
2019-01-21T03:52:47.084Z,38.90
2019-01-21T03:55:15.645Z,41.17
2019-01-21T03:57:52.342Z,38.23
2019-01-21T04:00:28.632Z,40.00
2019-01-21T04:03:15.529Z,37.33
2019-01-21T04:06:01.302Z,35.73
2019-01-21T04:08:57.617Z,35.43
2019-01-21T04:11:46.187Z,42.03
2019-01-21T04:14:39.368Z,35.90
2019-01-21T04:17:18.948Z,39.57
2019-01-21T04:19:49.419Z,32.03
2019-01-21T04:22:22.647Z,37.50
2019-01-21T04:24:58.997Z,40.87
2019-01-21T04:27:38.687Z,35.70
2019-01-21T04:30:15.360Z,39.33
2019-01-21T04:33:00.681Z,44.93
2019-01-21T04:35:40.040Z,42.07
2019-01-21T04:38:15.873Z,38.20
2019-01-21T04:40:48.962Z,39.67
2019-01-21T04:43:22.043Z,46.07
2019-01-21T04:46:04.330Z,46.00
2019-01-21T04:48:50.088Z,46.00
2019-01-21T04:51:26.361Z,50.90
2019-01-21T04:54:32.049Z,48.97
2019-01-21T04:57:11.484Z,45.27
2019-01-21T04:59:50.592Z,44.77
2019-01-21T05:02:35.817Z,46.70
2019-01-21T05:05:19.289Z,40.00
2019-01-21T05:07:52.754Z,43.77
2019-01-21T05:10:40.027Z,43.57
2019-01-21T05:13:38.880Z,42.43
2019-01-21T05:16:12.126Z,46.87
2019-01-21T05:18:51.839Z,46.20
2019-01-21T05:21:48.482Z,47.13
2019-01-21T05:24:34.380Z,43.10
2019-01-21T05:27:10.517Z,47.80
2019-01-21T05:30:02.743Z,42.87
2019-01-21T05:32:54.534Z,44.67
2019-01-21T05:35:49.580Z,45.77
2019-01-21T05:38:26.064Z,47.17
2019-01-21T05:41:05.510Z,49.07
2019-01-21T05:43:48.239Z,42.60
2019-01-21T05:46:35.184Z,48.67
2019-01-21T05:49:08.643Z,53.13
2019-01-21T05:51:57.050Z,52.10
2019-01-21T05:54:27.380Z,51.27
2019-01-21T05:57:00.597Z,47.30
2019-01-21T05:59:33.778Z,46.23
2019-01-21T06:02:15.888Z,47.93
2019-01-21T06:04:52.086Z,44.87
2019-01-21T06:07:25.481Z,49.63
2019-01-21T06:10:02.986Z,48.13
2019-01-21T06:12:42.397Z,45.73
2019-01-21T06:15:33.457Z,53.07
2019-01-21T06:18:22.251Z,52.40
2019-01-21T06:21:18.134Z,60.90
2019-01-21T06:24:00.777Z,59.60
2019-01-21T06:26:33.999Z,52.93
2019-01-21T06:29:10.256Z,52.60
2019-01-21T06:31:55.690Z,54.30
2019-01-21T06:34:34.732Z,61.20
2019-01-21T06:37:14.305Z,57.80
2019-01-21T06:39:53.890Z,58.13
2019-01-21T06:42:30.109Z,53.87
2019-01-21T06:45:03.412Z,55.90
2019-01-21T06:48:00.181Z,60.93
2019-01-21T06:50:48.000Z,58.97
2019-01-21T06:53:18.471Z,58.60
2019-01-21T06:56:00.967Z,56.77
2019-01-21T06:58:34.333Z,56.63
2019-01-21T07:01:34.940Z,56.87
2019-01-21T07:04:28.317Z,55.00
2019-01-21T07:07:15.014Z,64.27
2019-01-21T07:09:51.498Z,65.90
2019-01-21T07:12:48.472Z,60.60
2019-01-21T07:15:30.857Z,64.00
2019-01-21T07:18:19.687Z,59.30
2019-01-21T07:21:05.041Z,59.40
2019-01-21T07:23:41.241Z,56.77
2019-01-21T07:26:27.106Z,58.73
2019-01-21T07:29:00.339Z,56.43
2019-01-21T07:31:36.476Z,57.83
2019-01-21T07:34:09.546Z,57.27
2019-01-21T07:36:49.943Z,57.23
2019-01-21T07:39:33.865Z,58.00
2019-01-21T07:42:16.319Z,59.97
2019-01-21T07:44:52.649Z,56.07
2019-01-21T07:47:39.713Z,60.13
2019-01-21T07:50:31.019Z,59.40
2019-01-21T07:53:10.676Z,63.07
2019-01-21T07:55:46.699Z,61.63
2019-01-21T07:58:43.246Z,63.97
2019-01-21T08:01:19.647Z,61.17
2019-01-21T08:04:22.070Z,60.27
2019-01-21T08:06:58.753Z,60.83
2019-01-21T08:09:52.284Z,60.20
2019-01-21T08:12:34.828Z,56.83
2019-01-21T08:15:05.254Z,60.23
2019-01-21T08:17:35.626Z,55.97
2019-01-21T08:20:09.225Z,55.63
2019-01-21T08:22:54.847Z,56.87
2019-01-21T08:25:39.780Z,55.20
2019-01-21T08:28:28.344Z,56.10
2019-01-21T08:31:08.136Z,52.63
2019-01-21T08:33:44.188Z,53.23
2019-01-21T08:36:39.309Z,57.63
2019-01-21T08:39:18.228Z,56.47
2019-01-21T08:41:51.580Z,57.17
2019-01-21T08:44:36.669Z,54.97
2019-01-21T08:47:12.973Z,55.40
2019-01-21T08:49:43.396Z,58.67
2019-01-21T08:52:47.382Z,60.03
2019-01-21T08:55:37.681Z,53.63
2019-01-21T08:58:34.092Z,57.37
2019-01-21T09:01:10.520Z,57.17
2019-01-21T09:03:40.880Z,57.50
2019-01-21T09:06:17.065Z,56.80
2019-01-21T09:09:08.681Z,55.70
2019-01-21T09:11:45.368Z,53.93
2019-01-21T09:14:24.951Z,55.40
2019-01-21T09:17:19.853Z,55.40
2019-01-21T09:20:10.694Z,61.23
2019-01-21T09:22:43.525Z,55.83
2019-01-21T09:25:29.106Z,54.20
2019-01-21T09:28:05.458Z,57.00
2019-01-21T09:30:38.847Z,57.17
2019-01-21T09:33:23.807Z,56.70
2019-01-21T09:36:00.140Z,59.60
2019-01-21T09:38:36.278Z,55.30
2019-01-21T09:41:21.777Z,58.73
2019-01-21T09:43:52.344Z,52.60
2019-01-21T09:46:25.685Z,57.83
2019-01-21T09:48:52.022Z,55.17
2019-01-21T09:51:18.946Z,55.70
2019-01-21T09:53:48.317Z,58.67
2019-01-21T09:56:14.924Z,56.40
2019-01-21T09:58:43.078Z,61.50
2019-01-21T10:01:09.810Z,54.63
2019-01-21T10:03:37.096Z,51.23
2019-01-21T10:06:05.324Z,52.60
2019-01-21T10:08:51.568Z,51.90
2019-01-21T10:11:41.688Z,49.73
2019-01-21T10:14:23.733Z,51.97
2019-01-21T10:17:03.261Z,51.57
2019-01-21T10:19:36.396Z,53.00
2019-01-21T10:22:06.769Z,49.40
2019-01-21T10:24:58.070Z,53.10
2019-01-21T10:27:43.440Z,54.00
2019-01-21T10:30:13.873Z,49.87
2019-01-21T10:33:00.981Z,52.63
2019-01-21T10:35:35.409Z,48.90
2019-01-21T10:38:23.684Z,50.47
2019-01-21T10:40:59.897Z,51.63
2019-01-21T10:43:33.111Z,56.83
2019-01-21T10:46:09.485Z,52.40
2019-01-21T10:48:59.839Z,51.80
2019-01-21T10:51:30.164Z,49.43
2019-01-21T10:54:06.325Z,52.70
2019-01-21T10:56:51.601Z,51.20
2019-01-21T10:59:27.760Z,49.07
2019-01-21T11:02:10.221Z,48.97
2019-01-21T11:04:52.892Z,49.17
2019-01-21T11:07:38.521Z,50.50
2019-01-21T11:10:20.454Z,43.40
2019-01-21T11:12:56.860Z,51.27
2019-01-21T11:15:27.185Z,48.97
2019-01-21T11:18:12.783Z,52.77
2019-01-21T11:20:59.957Z,49.67
2019-01-21T11:23:30.411Z,48.93
2019-01-21T11:26:16.000Z,46.60
2019-01-21T11:28:55.681Z,45.50
2019-01-21T11:31:38.025Z,46.23
2019-01-21T11:34:23.484Z,45.20
2019-01-21T11:37:09.117Z,45.13
2019-01-21T11:40:07.697Z,44.60
2019-01-21T11:42:47.025Z,42.57
2019-01-21T11:45:36.576Z,45.23
2019-01-21T11:48:12.508Z,45.13
2019-01-21T11:51:02.950Z,47.77
2019-01-21T11:53:42.625Z,50.60
2019-01-21T11:56:13.053Z,49.10
2019-01-21T11:59:01.250Z,44.13
2019-01-21T12:01:43.084Z,45.73
2019-01-21T12:04:25.566Z,50.20
2019-01-21T12:06:58.460Z,53.70
2019-01-21T12:09:37.651Z,44.80
2019-01-21T12:12:07.986Z,49.43
2019-01-21T12:14:38.233Z,50.40
2019-01-21T12:17:26.496Z,47.30
2019-01-21T12:20:17.181Z,51.93
2019-01-21T12:22:50.938Z,50.73
2019-01-21T12:25:36.529Z,53.70
2019-01-21T12:28:28.419Z,48.07
2019-01-21T12:31:01.581Z,51.57
2019-01-21T12:33:43.885Z,51.83
2019-01-21T12:36:14.249Z,52.47
2019-01-21T12:39:08.785Z,54.40
2019-01-21T12:41:39.141Z,49.87
2019-01-21T12:44:09.492Z,51.90
2019-01-21T12:46:39.962Z,52.10
2019-01-21T12:49:29.356Z,48.93
2019-01-21T12:52:05.845Z,47.73
2019-01-21T12:54:53.205Z,49.47
2019-01-21T12:57:42.753Z,43.47
2019-01-21T13:00:30.747Z,51.37
2019-01-21T13:03:01.157Z,48.07
2019-01-21T13:05:38.053Z,48.13
2019-01-21T13:08:14.308Z,46.20
2019-01-21T13:10:54.471Z,44.27
2019-01-21T13:13:37.346Z,46.77
2019-01-21T13:16:10.983Z,43.20
2019-01-21T13:18:50.528Z,45.47
2019-01-21T13:21:27.165Z,45.93
2019-01-21T13:24:00.350Z,40.93
2019-01-21T13:26:58.400Z,44.70
2019-01-21T13:29:35.913Z,51.97
2019-01-21T13:32:12.234Z,47.47
2019-01-21T13:34:51.472Z,44.63
2019-01-21T13:37:48.168Z,44.97
2019-01-21T13:40:52.502Z,46.53
2019-01-21T13:43:22.885Z,48.60
2019-01-21T13:46:25.142Z,45.47
2019-01-21T13:49:04.789Z,45.07
2019-01-21T13:51:44.195Z,50.00
2019-01-21T13:54:32.923Z,46.00
2019-01-21T13:57:12.633Z,44.80
2019-01-21T13:59:55.225Z,45.77
2019-01-21T14:02:31.887Z,47.60
2019-01-21T14:05:13.932Z,50.27
2019-01-21T14:07:59.936Z,42.53
2019-01-21T14:10:33.110Z,45.33
2019-01-21T14:13:26.289Z,46.23
2019-01-21T14:15:55.949Z,39.00
2019-01-21T14:18:38.153Z,46.80
2019-01-21T14:21:08.468Z,39.30
2019-01-21T14:23:51.140Z,42.30
2019-01-21T14:26:38.419Z,38.60
2019-01-21T14:29:21.227Z,41.53
2019-01-21T14:31:54.310Z,41.30
2019-01-21T14:34:30.750Z,41.03
2019-01-21T14:37:07.342Z,40.63
2019-01-21T14:39:40.817Z,43.97
2019-01-21T14:42:23.415Z,40.63
2019-01-21T14:45:27.771Z,41.13
2019-01-21T14:48:11.069Z,43.07
2019-01-21T14:51:02.562Z,42.93
2019-01-21T14:53:33.041Z,41.23
2019-01-21T14:56:08.812Z,42.27
2019-01-21T14:58:45.427Z,38.37
2019-01-21T15:01:15.737Z,43.10
2019-01-21T15:03:48.801Z,41.27
2019-01-21T15:06:39.242Z,40.27
2019-01-21T15:09:24.988Z,40.33
2019-01-21T15:12:19.226Z,40.93
2019-01-21T15:15:09.889Z,38.93
2019-01-21T15:17:58.608Z,40.27
2019-01-21T15:20:35.022Z,35.83
2019-01-21T15:23:18.086Z,39.50
2019-01-21T15:25:56.937Z,41.30
2019-01-21T15:28:30.400Z,40.00
2019-01-21T15:31:15.756Z,40.53
2019-01-21T15:33:55.285Z,42.93
2019-01-21T15:36:40.671Z,42.40
2019-01-21T15:39:16.862Z,37.67
2019-01-21T15:42:02.601Z,41.97
2019-01-21T15:44:42.345Z,43.07
2019-01-21T15:47:21.456Z,41.13
2019-01-21T15:50:00.876Z,39.70
2019-01-21T15:52:31.212Z,34.97
2019-01-21T15:55:16.714Z,37.17
2019-01-21T15:57:50.045Z,38.40
2019-01-21T16:00:41.432Z,40.40
2019-01-21T16:03:11.861Z,39.00
2019-01-21T16:05:53.797Z,39.40
2019-01-21T16:08:23.926Z,41.90
2019-01-21T16:10:57.196Z,40.07
2019-01-21T16:13:30.597Z,40.47
2019-01-21T16:16:18.593Z,44.53
2019-01-21T16:18:51.828Z,41.77
2019-01-21T16:21:39.202Z,41.43
2019-01-21T16:24:31.480Z,42.90
2019-01-21T16:27:08.081Z,42.20
2019-01-21T16:29:38.665Z,43.97
2019-01-21T16:32:06.401Z,44.57
2019-01-21T16:34:39.643Z,41.80
2019-01-21T16:37:37.062Z,40.57
2019-01-21T16:40:15.997Z,42.83
2019-01-21T16:42:42.556Z,44.23
2019-01-21T16:45:09.321Z,41.47
2019-01-21T16:47:36.000Z,43.03
2019-01-21T16:50:03.915Z,42.70
2019-01-21T16:52:30.497Z,41.10
2019-01-21T16:54:57.021Z,46.03
2019-01-21T16:57:23.659Z,45.10
2019-01-21T16:59:50.209Z,39.40
2019-01-21T17:02:16.730Z,39.70
2019-01-21T17:04:43.306Z,43.40
2019-01-21T17:07:09.825Z,41.53
2019-01-21T17:09:36.459Z,42.07
2019-01-21T17:12:03.348Z,41.17
2019-01-21T17:14:29.973Z,42.70
2019-01-21T17:16:56.490Z,42.13
2019-01-21T17:19:23.060Z,40.40
2019-01-21T17:21:51.291Z,41.00
2019-01-21T17:24:17.861Z,43.90
2019-01-21T17:26:44.476Z,42.37
2019-01-21T17:29:11.041Z,38.87
2019-01-21T17:31:37.673Z,39.03
2019-01-21T17:34:04.400Z,41.50
2019-01-21T17:36:31.081Z,41.90
2019-01-21T17:38:57.608Z,38.87
2019-01-21T17:41:24.277Z,43.77
2019-01-21T17:43:50.868Z,41.40
2019-01-21T17:46:18.483Z,44.23
2019-01-21T17:48:45.089Z,46.10
2019-01-21T17:51:11.971Z,42.83
2019-01-21T17:53:38.482Z,43.17
2019-01-21T17:56:05.166Z,43.37
2019-01-21T17:58:31.678Z,43.60
2019-01-21T18:00:58.249Z,38.80
2019-01-21T18:03:24.930Z,45.20
2019-01-21T18:05:51.506Z,43.67
2019-01-21T18:08:18.156Z,41.60
2019-01-21T18:10:44.781Z,44.37
2019-01-21T18:13:11.481Z,45.03
2019-01-21T18:15:38.004Z,43.40
2019-01-21T18:18:05.168Z,44.93
2019-01-21T18:20:31.737Z,43.47
2019-01-21T18:22:58.457Z,46.13
2019-01-21T18:25:24.963Z,44.33
2019-01-21T18:27:51.545Z,43.40
2019-01-21T18:30:20.468Z,44.60
2019-01-21T18:32:47.178Z,46.20
2019-01-21T18:35:14.146Z,41.83
2019-01-21T18:37:40.934Z,48.67
2019-01-21T18:40:13.920Z,45.00
2019-01-21T18:42:40.520Z,44.53
2019-01-21T18:45:09.951Z,41.90
2019-01-21T18:47:36.514Z,45.13
2019-01-21T18:50:06.635Z,46.13
2019-01-21T18:52:33.315Z,45.67
2019-01-21T18:54:59.947Z,45.43
2019-01-21T18:57:26.568Z,43.03
2019-01-21T18:59:53.159Z,42.47
2019-01-21T19:02:19.678Z,39.93
2019-01-21T19:04:46.233Z,44.13
2019-01-21T19:07:12.914Z,50.60
2019-01-21T19:09:40.354Z,46.63
2019-01-21T19:12:07.389Z,44.30
2019-01-21T19:14:34.061Z,47.10
2019-01-21T19:17:00.782Z,42.13
2019-01-21T19:19:27.350Z,47.20
2019-01-21T19:21:54.124Z,45.43
2019-01-21T19:24:20.650Z,45.23
2019-01-21T19:26:47.221Z,47.17
2019-01-21T19:29:13.743Z,42.23
2019-01-21T19:31:40.381Z,45.23
2019-01-21T19:34:07.258Z,48.03
2019-01-21T19:36:34.041Z,42.83
2019-01-21T19:39:00.764Z,43.77
2019-01-21T19:41:27.501Z,41.87
2019-01-21T19:43:54.311Z,43.13
2019-01-21T19:46:20.869Z,43.80
2019-01-21T19:48:47.973Z,48.40
2019-01-21T19:51:14.542Z,46.73
2019-01-21T19:53:41.211Z,44.73
2019-01-21T19:56:07.803Z,48.80
2019-01-21T19:58:34.411Z,47.73
2019-01-21T20:01:01.173Z,45.00
2019-01-21T20:03:27.761Z,47.57
2019-01-21T20:05:54.374Z,50.30
2019-01-21T20:08:21.315Z,48.77
2019-01-21T20:10:48.327Z,49.30
2019-01-21T20:13:15.113Z,46.40
2019-01-21T20:15:41.812Z,56.53
2019-01-21T20:18:08.323Z,50.60
2019-01-21T20:20:37.396Z,52.00
2019-01-21T20:23:04.323Z,48.57
2019-01-21T20:25:30.976Z,51.70
2019-01-21T20:27:57.658Z,57.63
2019-01-21T20:30:24.277Z,60.37
2019-01-21T20:32:51.043Z,56.47
2019-01-21T20:35:17.858Z,59.27
2019-01-21T20:37:44.620Z,59.50
2019-01-21T20:40:19.788Z,58.53
2019-01-21T20:42:46.451Z,64.37
2019-01-21T20:45:14.586Z,61.60
2019-01-21T20:47:41.361Z,57.00
2019-01-21T20:50:14.354Z,58.07
2019-01-21T20:52:40.976Z,60.23
2019-01-21T20:55:09.023Z,62.47
2019-01-21T20:57:37.295Z,66.70
2019-01-21T21:00:10.413Z,61.93
2019-01-21T21:02:36.996Z,65.93
2019-01-21T21:05:05.484Z,75.37
2019-01-21T21:07:32.091Z,73.40
2019-01-21T21:09:58.866Z,70.47
2019-01-21T21:12:25.981Z,70.30
2019-01-21T21:14:52.789Z,71.23
2019-01-21T21:17:19.465Z,73.97
2019-01-21T21:19:46.141Z,74.13
2019-01-21T21:22:12.709Z,80.20
2019-01-21T21:24:39.297Z,73.90
2019-01-21T21:27:05.828Z,81.63
2019-01-21T21:29:32.422Z,73.60
2019-01-21T21:31:59.379Z,74.00
2019-01-21T21:34:26.140Z,79.93
2019-01-21T21:36:52.917Z,81.37
2019-01-21T21:39:19.446Z,79.60
2019-01-21T21:41:45.971Z,82.17
2019-01-21T21:44:12.525Z,74.50
2019-01-21T21:46:39.294Z,79.13
2019-01-21T21:49:05.905Z,82.70
2019-01-21T21:51:32.523Z,81.57
2019-01-21T21:53:59.027Z,81.97
2019-01-21T21:56:25.614Z,81.57
2019-01-21T21:58:52.128Z,82.63
2019-01-21T22:01:23.871Z,83.60
2019-01-21T22:03:47.264Z,90.70
2019-01-21T22:06:13.940Z,80.90
2019-01-21T22:08:40.465Z,89.07
2019-01-21T22:11:07.061Z,89.93
2019-01-21T22:13:33.623Z,84.67
2019-01-21T22:16:00.452Z,90.17
2019-01-21T22:18:27.312Z,94.20
2019-01-21T22:20:54.037Z,91.60
2019-01-21T22:23:22.397Z,93.37
2019-01-21T22:25:48.909Z,87.57
2019-01-21T22:28:15.571Z,91.67
2019-01-21T22:30:42.128Z,98.40
2019-01-21T22:33:08.709Z,92.20
2019-01-21T22:35:35.328Z,99.03
2019-01-21T22:38:01.947Z,98.07
2019-01-21T22:40:28.609Z,90.27
2019-01-21T22:42:55.260Z,100.57
2019-01-21T22:45:21.840Z,98.00
2019-01-21T22:47:48.473Z,104.87
2019-01-21T22:50:16.250Z,95.90
2019-01-21T22:52:42.881Z,89.47
2019-01-21T22:55:11.248Z,90.13
2019-01-21T22:57:37.774Z,99.60
2019-01-21T23:00:10.910Z,96.60
2019-01-21T23:02:38.001Z,83.90
2019-01-21T23:05:06.124Z,87.87
2019-01-21T23:07:32.836Z,90.77
2019-01-21T23:09:59.349Z,94.90
2019-01-21T23:12:26.138Z,89.63
2019-01-21T23:14:52.652Z,91.80
2019-01-21T23:17:19.184Z,98.57
2019-01-21T23:19:45.755Z,89.00
2019-01-21T23:22:12.294Z,91.60
2019-01-21T23:24:38.818Z,91.63
2019-01-21T23:27:05.476Z,89.50
2019-01-21T23:29:32.148Z,87.63
2019-01-21T23:31:58.810Z,83.27
2019-01-21T23:34:25.673Z,88.40
2019-01-21T23:36:52.322Z,91.10
2019-01-21T23:39:18.982Z,83.13
2019-01-21T23:41:45.653Z,82.70
2019-01-21T23:44:12.259Z,79.17
2019-01-21T23:46:39.049Z,77.00
2019-01-21T23:49:05.557Z,78.10
2019-01-21T23:51:32.485Z,81.97
2019-01-21T23:53:59.005Z,76.13
2019-01-21T23:56:25.629Z,76.20
2019-01-21T23:58:52.296Z,71.53
